Time;durP1;ratioP1;P1;durP2;ratioP2;P2;SDS_P1;SDS_P2;PMS_P1;PMS_P2;Temp;Humidity;BMP_temperature;BMP_pressure;BME280_temperature;BME280_humidity;BME280_pressure;Samples;Min_cycle;Max_cycle;Signal;HPM_P1;HPM_P2
2022/03/21 00:02:05;;;;;;;15.65;11.18;;;12.10;64.70;;;;;;5116772;27;20115;-60
2022/03/21 00:04:31;;;;;;;17.55;11.63;;;12.10;64.80;;;;;;5113204;27;20073;-60
2022/03/21 00:06:57;;;;;;;17.92;10.82;;;12.10;64.80;;;;;;5101928;28;20039;-60
2022/03/21 00:09:22;;;;;;;20.55;11.55;;;12.10;64.80;;;;;;5095377;28;20020;-60
2022/03/21 00:11:50;;;;;;;16.27;10.32;;;12.00;64.80;;;;;;5104991;28;20096;-60
2022/03/21 00:14:15;;;;;;;16.23;10.13;;;12.00;64.80;;;;;;5106156;28;20038;-60
2022/03/21 00:16:41;;;;;;;13.85;10.88;;;12.00;65.00;;;;;;5077972;28;20379;-60
2022/03/21 00:19:07;;;;;;;12.55;10.25;;;11.90;65.00;;;;;;5113616;28;20553;-60
2022/03/21 00:21:34;;;;;;;15.02;10.70;;;11.90;65.10;;;;;;5111705;28;20023;-61
2022/03/21 00:24:00;;;;;;;16.35;10.23;;;11.90;65.10;;;;;;5088503;28;20016;-60
2022/03/21 00:26:26;;;;;;;16.27;10.60;;;11.90;65.00;;;;;;5100184;28;20416;-60
2022/03/21 00:28:51;;;;;;;13.63;10.57;;;11.80;65.10;;;;;;5091421;28;20558;-60
2022/03/21 00:31:17;;;;;;;16.13;10.32;;;11.80;65.20;;;;;;5089410;27;20063;-60
2022/03/21 00:33:42;;;;;;;14.10;10.57;;;11.80;65.20;;;;;;5079511;28;20038;-60
2022/03/21 00:36:08;;;;;;;13.32;10.13;;;11.80;65.20;;;;;;5101185;28;20110;-60
2022/03/21 00:38:37;;;;;;;15.70;10.32;;;11.70;65.30;;;;;;5118717;28;20027;-60
2022/03/21 00:41:05;;;;;;;14.45;10.38;;;11.70;65.30;;;;;;5108755;28;20023;-59
2022/03/21 00:43:31;;;;;;;13.40;10.45;;;11.70;65.30;;;;;;5104385;28;20182;-60
2022/03/21 00:45:57;;;;;;;15.55;10.18;;;11.60;65.30;;;;;;5057058;28;20578;-60
2022/03/21 00:48:23;;;;;;;12.75;9.50;;;11.60;65.50;;;;;;5080552;28;20434;-60
2022/03/21 00:50:49;;;;;;;17.15;9.98;;;11.60;65.40;;;;;;5089180;27;20035;-59
2022/03/21 00:53:16;;;;;;;13.90;9.93;;;11.60;65.40;;;;;;5086762;27;20032;-60
2022/03/21 00:55:42;;;;;;;13.95;9.68;;;11.60;65.50;;;;;;5100826;27;20020;-60
2022/03/21 00:58:08;;;;;;;13.48;9.52;;;11.50;65.50;;;;;;5076839;27;20027;-60
2022/03/21 01:00:33;;;;;;;16.65;9.43;;;11.50;65.60;;;;;;5073424;27;20043;-59
2022/03/21 01:02:59;;;;;;;11.98;9.65;;;11.50;65.50;;;;;;5103784;27;20515;-60
2022/03/21 01:05:25;;;;;;;13.75;9.05;;;11.50;65.70;;;;;;5116486;27;20110;-60
2022/03/21 01:07:51;;;;;;;10.52;9.30;;;11.40;65.60;;;;;;5086478;27;20110;-60
2022/03/21 01:10:18;;;;;;;12.95;9.52;;;11.40;65.60;;;;;;5115312;27;20471;-60
2022/03/21 01:12:44;;;;;;;10.35;8.85;;;11.40;65.70;;;;;;5091666;27;20462;-60
2022/03/21 01:15:10;;;;;;;10.80;9.02;;;11.40;65.80;;;;;;5122534;27;20031;-60
2022/03/21 01:17:36;;;;;;;12.35;9.20;;;11.40;65.70;;;;;;5106330;27;20030;-59
2022/03/21 01:20:02;;;;;;;11.80;8.82;;;11.30;65.90;;;;;;5106245;27;20440;-60
2022/03/21 01:22:27;;;;;;;12.88;9.25;;;11.30;65.90;;;;;;5104958;27;20028;-60
2022/03/21 01:24:53;;;;;;;10.80;9.23;;;11.20;65.90;;;;;;5122088;27;20068;-60
2022/03/21 01:27:18;;;;;;;12.07;8.90;;;11.20;65.90;;;;;;5117941;27;20031;-60
2022/03/21 01:29:44;;;;;;;12.85;8.13;;;11.20;65.90;;;;;;5108327;27;20495;-60
2022/03/21 01:32:10;;;;;;;9.52;8.02;;;11.20;65.90;;;;;;5088342;27;20030;-59
2022/03/21 01:34:35;;;;;;;10.73;8.43;;;11.20;65.90;;;;;;5092161;27;20039;-60
2022/03/21 01:37:01;;;;;;;12.65;9.05;;;11.10;66.00;;;;;;5124267;27;20154;-60
2022/03/21 01:39:26;;;;;;;12.15;9.20;;;11.10;66.00;;;;;;5099435;28;20175;-60
2022/03/21 01:41:52;;;;;;;12.38;8.52;;;11.10;66.00;;;;;;5095000;28;20019;-60
2022/03/21 01:44:18;;;;;;;11.80;9.20;;;11.00;65.90;;;;;;5088470;27;20511;-60
2022/03/21 01:46:44;;;;;;;9.75;8.38;;;11.00;66.00;;;;;;5096703;27;20035;-60
2022/03/21 01:49:10;;;;;;;11.07;9.00;;;11.00;66.00;;;;;;5097700;27;20275;-60
2022/03/21 01:51:36;;;;;;;9.73;8.50;;;11.00;66.10;;;;;;5108834;27;20296;-60
2022/03/21 01:56:46;;;;;;;9.68;8.55;;;10.90;66.10;;;;;;5104655;27;20084;-60
2022/03/21 01:59:12;;;;;;;10.52;8.18;;;10.90;66.80;;;;;;5091978;27;20622;-60
2022/03/21 02:01:38;;;;;;;10.82;8.18;;;10.90;66.10;;;;;;5097629;28;20041;-60
2022/03/21 02:04:03;;;;;;;11.90;8.27;;;10.90;66.20;;;;;;5109756;27;20042;-60
2022/03/21 02:06:29;;;;;;;9.40;8.02;;;10.80;66.10;;;;;;5121198;27;20065;-60
2022/03/21 02:08:58;;;;;;;10.38;8.27;;;10.80;66.10;;;;;;5111627;27;20036;-60
2022/03/21 02:11:27;;;;;;;9.68;7.78;;;10.80;66.30;;;;;;5112596;27;20031;-60
2022/03/21 02:13:57;;;;;;;9.63;7.75;;;10.80;66.30;;;;;;5089737;27;20266;-59
2022/03/21 02:16:23;;;;;;;10.48;8.48;;;10.80;66.40;;;;;;5087120;27;20207;-60
2022/03/21 02:18:49;;;;;;;11.07;8.02;;;10.70;66.30;;;;;;5086889;27;20152;-60
2022/03/21 02:21:35;;;;;;;10.25;7.80;;;10.70;66.40;;;;;;5088631;27;20106;-60
2022/03/21 02:24:03;;;;;;;9.82;8.00;;;10.70;66.30;;;;;;5081166;27;20512;-60
2022/03/21 02:26:29;;;;;;;10.05;7.65;;;10.70;66.40;;;;;;5102369;27;20064;-60
2022/03/21 02:28:54;;;;;;;9.45;7.82;;;10.60;66.40;;;;;;5103921;27;20472;-60
2022/03/21 02:31:20;;;;;;;10.40;8.07;;;10.70;66.30;;;;;;5084197;27;20548;-60
2022/03/21 02:33:46;;;;;;;13.68;8.25;;;10.70;66.30;;;;;;5106739;27;20090;-60
2022/03/21 02:36:12;;;;;;;9.80;7.65;;;10.70;66.40;;;;;;5095950;27;20024;-59
2022/03/21 02:38:37;;;;;;;9.60;7.75;;;10.60;66.30;;;;;;5099551;27;20367;-59
2022/03/21 02:41:03;;;;;;;9.50;7.90;;;10.60;66.30;;;;;;5121137;27;20125;-59
2022/03/21 02:43:28;;;;;;;11.32;8.40;;;10.60;66.40;;;;;;5103597;27;20505;-60
2022/03/21 02:46:04;;;;;;;11.60;8.30;;;10.60;66.30;;;;;;5112482;27;20023;-60
2022/03/21 02:48:29;;;;;;;12.30;8.77;;;10.60;66.30;;;;;;5124061;27;20034;-61
2022/03/21 02:51:00;;;;;;;11.48;8.55;;;10.50;66.30;;;;;;5122731;27;20031;-60
2022/03/21 02:53:28;;;;;;;15.43;8.57;;;10.60;66.40;;;;;;5103662;27;20031;-60
2022/03/21 02:55:56;;;;;;;14.40;10.13;;;10.50;66.50;;;;;;5088048;27;20537;-59
2022/03/21 02:58:22;;;;;;;14.93;11.48;;;10.50;66.50;;;;;;5103473;27;20126;-59
2022/03/21 03:00:48;;;;;;;12.43;10.23;;;10.50;66.60;;;;;;5088104;27;20133;-60
2022/03/21 03:03:14;;;;;;;13.45;10.18;;;10.40;66.70;;;;;;5104366;27;20500;-60
2022/03/21 03:05:39;;;;;;;13.00;9.77;;;10.40;66.80;;;;;;5122315;27;20359;-61
2022/03/21 03:08:05;;;;;;;14.32;11.18;;;10.40;66.80;;;;;;5120131;27;20094;-60
2022/03/21 03:10:30;;;;;;;13.38;11.25;;;10.50;66.90;;;;;;5104220;27;20110;-60
2022/03/21 03:12:56;;;;;;;15.82;10.70;;;10.40;67.10;;;;;;5121206;27;20617;-60
2022/03/21 03:15:21;;;;;;;14.55;11.30;;;10.30;67.00;;;;;;5123114;27;20099;-61
2022/03/21 03:17:47;;;;;;;14.18;11.10;;;10.30;67.10;;;;;;5104152;27;20027;-60
2022/03/21 03:20:12;;;;;;;19.88;13.57;;;10.30;67.00;;;;;;5121847;27;20071;-59
2022/03/21 03:22:38;;;;;;;16.80;13.38;;;10.20;66.80;;;;;;5100577;27;20146;-59
2022/03/21 03:25:04;;;;;;;18.55;13.00;;;10.20;67.00;;;;;;5103554;27;20075;-60
2022/03/21 03:27:31;;;;;;;20.88;14.23;;;10.20;67.00;;;;;;5102280;27;20112;-60
2022/03/21 03:29:57;;;;;;;19.02;15.05;;;10.20;67.00;;;;;;5114287;27;20472;-61
2022/03/21 03:32:23;;;;;;;19.30;15.82;;;10.20;67.00;;;;;;5081208;28;20060;-60
2022/03/21 03:34:48;;;;;;;24.65;16.40;;;10.20;67.00;;;;;;5087583;28;20024;-60
2022/03/21 03:37:15;;;;;;;24.23;16.88;;;10.20;67.10;;;;;;5103472;27;20035;-60
2022/03/21 03:39:40;;;;;;;20.98;15.32;;;10.10;67.20;;;;;;5080012;27;20019;-60
2022/03/21 03:42:06;;;;;;;18.30;14.27;;;10.10;67.20;;;;;;5087600;28;20034;-60
2022/03/21 03:44:32;;;;;;;19.48;14.98;;;10.10;67.20;;;;;;5083494;27;20042;-60
2022/03/21 03:46:57;;;;;;;20.92;14.57;;;10.00;67.10;;;;;;5107177;27;20555;-60
2022/03/21 03:49:23;;;;;;;20.02;14.52;;;10.00;67.20;;;;;;5104300;27;20299;-60
2022/03/21 03:51:49;;;;;;;18.15;14.13;;;10.00;67.30;;;;;;5101324;27;20498;-60
2022/03/21 03:54:15;;;;;;;16.88;13.80;;;10.00;67.30;;;;;;5070482;28;20066;-60
2022/03/21 03:56:40;;;;;;;17.92;14.18;;;10.00;67.20;;;;;;5083491;28;20402;-59
2022/03/21 03:59:06;;;;;;;21.73;13.15;;;9.90;67.20;;;;;;5100104;28;20081;-60
2022/03/21 04:01:31;;;;;;;18.15;14.25;;;10.00;67.40;;;;;;5103414;27;20086;-61
2022/03/21 04:03:59;;;;;;;20.63;14.73;;;10.00;67.50;;;;;;5100072;28;20165;-60
2022/03/21 04:06:25;;;;;;;17.98;13.88;;;9.90;67.50;;;;;;5084993;28;20016;-60
2022/03/21 04:08:51;;;;;;;18.42;13.90;;;9.90;67.50;;;;;;5102254;28;20027;-60
2022/03/21 04:11:17;;;;;;;21.00;14.85;;;9.90;67.60;;;;;;5085700;28;20119;-60
2022/03/21 04:13:42;;;;;;;18.88;13.25;;;9.90;67.50;;;;;;5107936;28;20194;-60
2022/03/21 04:16:08;;;;;;;18.60;14.80;;;9.80;67.60;;;;;;5083378;28;20036;-60
2022/03/21 04:18:35;;;;;;;19.08;16.00;;;9.80;67.60;;;;;;5095825;28;20353;-60
2022/03/21 04:21:00;;;;;;;20.80;14.95;;;9.80;67.60;;;;;;5067567;28;20422;-60
2022/03/21 04:23:26;;;;;;;22.80;15.38;;;9.80;67.70;;;;;;5085854;28;20030;-60
2022/03/21 04:25:52;;;;;;;20.73;15.57;;;9.80;68.20;;;;;;5082743;28;20568;-60
2022/03/21 04:28:17;;;;;;;19.05;14.38;;;9.80;67.60;;;;;;5105888;27;20332;-60
2022/03/21 04:30:43;;;;;;;23.98;15.50;;;9.80;67.60;;;;;;5100039;27;20079;-60
2022/03/21 04:33:09;;;;;;;20.88;14.95;;;9.80;67.60;;;;;;5086261;28;20212;-60
2022/03/21 04:35:35;;;;;;;18.73;14.02;;;9.80;67.70;;;;;;5086916;27;20513;-60
2022/03/21 04:38:01;;;;;;;19.42;14.07;;;9.70;67.70;;;;;;5069229;27;20277;-60
2022/03/21 04:40:27;;;;;;;18.00;13.43;;;9.70;67.70;;;;;;5106119;27;20524;-59
2022/03/21 04:42:52;;;;;;;17.27;13.20;;;9.70;67.70;;;;;;5084363;27;20058;-60
2022/03/21 04:45:18;;;;;;;17.63;13.25;;;9.70;68.60;;;;;;5106640;27;20059;-60
2022/03/21 04:47:45;;;;;;;18.52;14.07;;;9.60;67.90;;;;;;5086446;27;20075;-59
2022/03/21 04:50:11;;;;;;;18.02;13.40;;;9.60;67.80;;;;;;5087125;27;20036;-60
2022/03/21 04:52:36;;;;;;;16.75;12.13;;;9.60;67.90;;;;;;5104362;27;20051;-60
2022/03/21 04:55:02;;;;;;;16.52;11.88;;;9.60;67.90;;;;;;5109675;27;20114;-60
2022/03/21 04:57:28;;;;;;;17.90;12.38;;;9.50;68.00;;;;;;5053474;27;20023;-60
2022/03/21 04:59:55;;;;;;;17.63;12.07;;;9.50;68.10;;;;;;5087038;27;20055;-60
2022/03/21 05:02:21;;;;;;;18.42;12.65;;;9.50;68.10;;;;;;5107391;27;20024;-60
2022/03/21 05:04:46;;;;;;;24.73;11.65;;;9.50;68.90;;;;;;5105904;27;20084;-60
2022/03/21 05:07:17;;;;;;;15.30;11.50;;;9.50;68.40;;;;;;5085962;27;20042;-60
2022/03/21 05:09:43;;;;;;;17.35;12.23;;;9.50;68.20;;;;;;5068789;28;20375;-60
2022/03/21 05:12:10;;;;;;;14.23;11.90;;;9.50;68.20;;;;;;5106020;27;20031;-60
2022/03/21 05:14:35;;;;;;;18.50;11.63;;;9.50;68.20;;;;;;5106555;27;20046;-60
2022/03/21 05:17:02;;;;;;;17.13;11.63;;;9.50;68.30;;;;;;5096607;27;20027;-60
2022/03/21 05:19:28;;;;;;;15.52;11.10;;;9.50;68.40;;;;;;5105861;27;20557;-60
2022/03/21 05:21:54;;;;;;;16.42;10.50;;;9.50;68.70;;;;;;5070893;27;21298;-60
2022/03/21 05:32:32;;;;;;;63.95;15.60;;;9.50;68.70;;;;;;5098521;27;20038;-60
2022/03/21 05:37:41;;;;;;;31.60;12.18;;;9.40;68.70;;;;;;5104376;27;20153;-60
2022/03/21 05:42:52;;;;;;;33.15;11.88;;;9.40;68.80;;;;;;5077695;28;20379;-59
2022/03/21 05:45:19;;;;;;;29.98;11.93;;;9.40;68.90;;;;;;5102327;27;20531;-60
2022/03/21 05:50:34;;;;;;;34.78;11.63;;;9.40;68.90;;;;;;5101916;27;20054;-60
2022/03/21 05:53:00;;;;;;;23.92;10.75;;;9.40;68.90;;;;;;5112273;27;20203;-59
2022/03/21 05:55:25;;;;;;;21.77;11.57;;;9.30;68.90;;;;;;5116393;27;20036;-60
2022/03/21 05:57:51;;;;;;;23.55;11.48;;;9.30;69.00;;;;;;5118400;27;20482;-60
2022/03/21 06:00:22;;;;;;;31.10;12.38;;;9.50;69.10;;;;;;5118732;27;20023;-60
2022/03/21 06:02:51;;;;;;;25.30;11.40;;;9.30;68.90;;;;;;5105909;27;21087;-60
2022/03/21 06:05:21;;;;;;;29.48;11.27;;;9.30;69.10;;;;;;5106624;27;20118;-60
2022/03/21 06:07:47;;;;;;;18.33;10.27;;;9.30;69.10;;;;;;5101393;27;20160;-61
2022/03/21 06:10:13;;;;;;;29.38;10.35;;;9.30;69.10;;;;;;5103992;27;20471;-60
2022/03/21 06:12:42;;;;;;;23.75;10.90;;;9.20;68.90;;;;;;5065577;27;20386;-60
2022/03/21 06:15:08;;;;;;;21.30;11.07;;;9.20;69.10;;;;;;5114901;27;20030;-61
2022/03/21 06:17:40;;;;;;;19.08;10.93;;;9.20;69.20;;;;;;5081694;27;20069;-60
2022/03/21 06:20:11;;;;;;;27.63;10.35;;;9.20;69.20;;;;;;5100559;27;20111;-60
2022/03/21 06:22:36;;;;;;;19.08;9.75;;;9.20;69.30;;;;;;5078291;27;20161;-59
2022/03/21 06:25:02;;;;;;;15.68;10.35;;;9.20;69.40;;;;;;5095595;27;20165;-60
2022/03/21 06:27:28;;;;;;;19.92;10.70;;;9.20;69.50;;;;;;5113302;27;20091;-60
2022/03/21 06:29:53;;;;;;;22.75;10.45;;;9.10;69.50;;;;;;5102999;27;20756;-59
2022/03/21 06:32:19;;;;;;;16.88;10.32;;;9.10;69.60;;;;;;5113713;27;20031;-60
2022/03/21 06:34:45;;;;;;;24.23;9.70;;;9.10;69.60;;;;;;5082504;27;20029;-60
2022/03/21 06:37:11;;;;;;;19.23;10.40;;;9.10;69.70;;;;;;5112384;27;20046;-61
2022/03/21 06:39:36;;;;;;;20.35;10.55;;;9.10;69.80;;;;;;5093119;27;20312;-60
2022/03/21 06:42:02;;;;;;;17.63;10.43;;;9.10;69.80;;;;;;5110905;27;20114;-60
2022/03/21 06:44:27;;;;;;;23.15;10.20;;;9.10;69.80;;;;;;5100977;27;20316;-60
2022/03/21 06:46:53;;;;;;;19.98;10.75;;;9.10;69.80;;;;;;5111180;27;20019;-60
2022/03/21 06:49:20;;;;;;;25.67;10.13;;;9.10;69.80;;;;;;5092917;27;20062;-60
2022/03/21 06:51:46;;;;;;;24.83;9.95;;;9.10;69.80;;;;;;5115079;27;20651;-60
2022/03/21 06:54:11;;;;;;;15.50;9.23;;;9.10;69.70;;;;;;5116129;27;20046;-59
2022/03/21 06:56:37;;;;;;;19.65;10.57;;;9.10;69.60;;;;;;5119908;27;20111;-60
2022/03/21 06:59:02;;;;;;;18.77;10.02;;;9.10;69.60;;;;;;5111579;27;20385;-60
2022/03/21 07:01:31;;;;;;;17.42;9.90;;;9.10;69.60;;;;;;5116899;27;20496;-60
2022/03/21 07:03:56;;;;;;;19.33;10.38;;;9.10;69.60;;;;;;5064652;28;20831;-60
2022/03/21 07:06:22;;;;;;;15.50;9.35;;;9.10;69.70;;;;;;5097820;27;20058;-60
2022/03/21 07:08:51;;;;;;;18.55;9.85;;;9.10;69.80;;;;;;5110748;27;20229;-60
2022/03/21 07:11:18;;;;;;;18.52;9.88;;;9.10;69.80;;;;;;5081753;28;20035;-60
2022/03/21 07:13:43;;;;;;;16.42;10.10;;;9.10;69.70;;;;;;5073998;28;20027;-60
2022/03/21 07:16:13;;;;;;;12.25;8.85;;;9.10;69.60;;;;;;5099841;27;20442;-60
2022/03/21 07:18:38;;;;;;;18.95;10.23;;;9.10;69.60;;;;;;5074617;28;20131;-60
2022/03/21 07:21:04;;;;;;;18.38;10.38;;;9.30;69.60;;;;;;5095131;27;20107;-62
2022/03/21 07:23:30;;;;;;;14.68;9.85;;;9.10;69.60;;;;;;5081549;27;20043;-61
2022/03/21 07:25:55;;;;;;;17.27;9.80;;;9.10;69.40;;;;;;5082553;28;20474;-59
2022/03/21 07:28:21;;;;;;;20.65;9.35;;;9.10;69.40;;;;;;5092357;27;20023;-60
2022/03/21 07:30:46;;;;;;;17.27;9.48;;;9.10;69.50;;;;;;5096891;27;20043;-59
2022/03/21 07:33:12;;;;;;;16.92;9.82;;;9.10;69.40;;;;;;5094270;27;20020;-60
2022/03/21 07:35:38;;;;;;;16.92;9.88;;;9.10;69.30;;;;;;5089230;28;20051;-60
2022/03/21 07:38:03;;;;;;;16.35;9.82;;;9.20;69.50;;;;;;5081663;28;20035;-60
2022/03/21 07:40:30;;;;;;;14.00;9.50;;;9.10;69.50;;;;;;5079049;28;20043;-59
2022/03/21 07:42:56;;;;;;;19.42;9.80;;;9.20;69.80;;;;;;5083593;27;20271;-60
2022/03/21 07:48:05;;;;;;;20.65;9.70;;;9.10;69.70;;;;;;5110245;27;20087;-60
2022/03/21 07:50:31;;;;;;;16.38;9.25;;;9.20;69.80;;;;;;5088206;27;20023;-59
2022/03/21 07:52:57;;;;;;;17.63;9.70;;;9.20;69.90;;;;;;5091707;28;20063;-61
2022/03/21 07:55:23;;;;;;;19.17;9.80;;;9.20;69.90;;;;;;5102058;27;20142;-60
2022/03/21 07:57:48;;;;;;;16.30;10.65;;;9.20;69.80;;;;;;5065139;28;20342;-60
2022/03/21 08:00:15;;;;;;;22.63;9.57;;;9.20;69.80;;;;;;5076824;27;20051;-60
2022/03/21 08:02:43;;;;;;;20.10;9.80;;;9.20;69.80;;;;;;5112176;27;20070;-60
2022/03/21 08:05:09;;;;;;;21.50;10.27;;;9.20;69.80;;;;;;5111291;28;20614;-60
2022/03/21 08:07:35;;;;;;;18.50;10.43;;;9.20;69.70;;;;;;5089809;27;20037;-60
2022/03/21 08:10:02;;;;;;;15.85;10.10;;;9.30;69.80;;;;;;5113782;27;20020;-60
2022/03/21 08:12:27;;;;;;;17.27;9.45;;;9.30;69.70;;;;;;5090637;28;20027;-60
2022/03/21 08:14:53;;;;;;;17.83;10.20;;;9.30;69.70;;;;;;5094732;28;20497;-60
2022/03/21 08:17:18;;;;;;;16.38;9.25;;;9.30;69.60;;;;;;5095146;28;20043;-59
2022/03/21 08:19:44;;;;;;;13.32;9.68;;;9.30;69.60;;;;;;5111349;28;20042;-63
2022/03/21 08:22:10;;;;;;;19.15;9.93;;;9.30;69.60;;;;;;5102680;27;20407;-61
2022/03/21 08:24:36;;;;;;;23.05;9.45;;;9.30;69.60;;;;;;5094854;28;20424;-60
2022/03/21 08:27:02;;;;;;;19.27;9.52;;;9.30;69.60;;;;;;5078931;28;20463;-60
2022/03/21 08:29:28;;;;;;;16.77;9.75;;;9.30;69.70;;;;;;5067264;27;20045;-60
2022/03/21 08:31:53;;;;;;;25.80;10.30;;;9.30;69.60;;;;;;5071576;28;20031;-60
2022/03/21 08:34:19;;;;;;;17.05;9.98;;;9.40;69.60;;;;;;5101053;28;20110;-61
2022/03/21 08:36:45;;;;;;;53.20;13.50;;;9.40;69.40;;;;;;5100656;28;20317;-60
2022/03/21 08:39:10;;;;;;;33.90;11.02;;;9.40;69.40;;;;;;5091622;28;20038;-60
2022/03/21 08:41:37;;;;;;;33.17;10.65;;;9.40;69.30;;;;;;5096661;28;20031;-61
2022/03/21 08:44:03;;;;;;;24.85;11.07;;;9.40;69.30;;;;;;5082007;28;20038;-61
2022/03/21 08:46:28;;;;;;;24.65;10.68;;;9.40;69.40;;;;;;5061820;28;20474;-62
2022/03/21 08:51:38;;;;;;;18.70;9.02;;;9.50;69.00;;;;;;5114326;27;20078;-61
2022/03/21 08:54:07;;;;;;;16.75;9.38;;;9.40;68.90;;;;;;5115587;27;20051;-60
2022/03/21 08:56:33;;;;;;;17.85;8.70;;;9.50;68.90;;;;;;5089442;28;20041;-60
2022/03/21 08:58:59;;;;;;;24.90;10.13;;;9.50;68.90;;;;;;5114176;28;20064;-60
2022/03/21 09:01:24;;;;;;;20.30;10.20;;;9.50;69.00;;;;;;5085898;28;20042;-61
2022/03/21 09:03:51;;;;;;;25.10;10.82;;;9.50;68.90;;;;;;5115155;28;20023;-60
2022/03/21 09:06:17;;;;;;;24.73;10.40;;;9.50;68.90;;;;;;5085334;28;20698;-60
2022/03/21 09:08:43;;;;;;;30.30;10.25;;;9.50;68.90;;;;;;5101292;27;20102;-60
2022/03/21 09:11:09;;;;;;;27.27;10.20;;;9.60;68.90;;;;;;5115538;27;20263;-61
2022/03/21 09:13:34;;;;;;;17.48;9.63;;;9.50;68.90;;;;;;5094280;27;20394;-60
2022/03/21 09:16:00;;;;;;;20.25;9.25;;;9.60;68.90;;;;;;5119432;27;20054;-60
2022/03/21 09:18:25;;;;;;;23.88;9.68;;;9.60;68.90;;;;;;5123241;27;20830;-60
2022/03/21 09:20:51;;;;;;;20.50;10.88;;;9.60;68.90;;;;;;5122178;27;20358;-61
2022/03/21 09:23:16;;;;;;;24.40;9.82;;;9.60;68.80;;;;;;5085738;27;20518;-60
2022/03/21 09:25:43;;;;;;;37.33;10.82;;;9.70;69.00;;;;;;5087217;27;20076;-60
2022/03/21 09:28:08;;;;;;;25.52;10.27;;;9.70;68.70;;;;;;5119373;27;20008;-60
2022/03/21 09:30:34;;;;;;;34.42;10.38;;;9.90;68.80;;;;;;5076065;28;20647;-61
2022/03/21 09:33:00;;;;;;;24.67;10.73;;;9.70;68.60;;;;;;5099945;27;20032;-60
2022/03/21 09:35:25;;;;;;;19.20;9.88;;;9.70;68.20;;;;;;5081753;27;20095;-61
2022/03/21 09:37:51;;;;;;;18.75;9.65;;;9.80;68.10;;;;;;5080779;28;20328;-60
2022/03/21 09:40:19;;;;;;;28.67;10.25;;;9.80;68.20;;;;;;5082219;27;20043;-60
2022/03/21 09:42:45;;;;;;;26.55;11.15;;;9.80;68.10;;;;;;5064780;28;20019;-60
2022/03/21 09:45:11;;;;;;;29.48;10.65;;;9.90;68.00;;;;;;5084934;28;20027;-60
2022/03/21 09:50:21;;;;;;;42.13;11.43;;;9.90;67.50;;;;;;5083758;27;20090;-60
2022/03/21 09:52:46;;;;;;;40.95;12.05;;;10.00;67.10;;;;;;5069827;28;20058;-60
2022/03/21 09:55:12;;;;;;;31.35;11.70;;;10.00;67.50;;;;;;5056604;28;20075;-61
2022/03/21 09:57:37;;;;;;;31.92;10.68;;;10.00;66.70;;;;;;5057660;27;22118;-61
2022/03/21 10:00:04;;;;;;;41.47;12.43;;;10.00;66.80;;;;;;5095763;27;20071;-61
2022/03/21 10:02:30;;;;;;;54.42;13.50;;;10.10;67.20;;;;;;5079202;27;20032;-61
2022/03/21 10:04:55;;;;;;;49.85;12.18;;;10.10;67.10;;;;;;5085355;28;20051;-60
2022/03/21 10:07:25;;;;;;;38.20;12.13;;;10.20;66.90;;;;;;5099841;27;20051;-60
2022/03/21 10:10:06;;;;;;;43.90;12.43;;;10.20;66.60;;;;;;5099913;27;20019;-61
2022/03/21 10:12:31;;;;;;;112.50;17.83;;;10.20;66.40;;;;;;5073564;27;20105;-60
2022/03/21 10:14:59;;;;;;;69.60;15.25;;;10.30;66.20;;;;;;5100319;27;20643;-60
2022/03/21 10:17:24;;;;;;;44.95;12.50;;;10.30;66.70;;;;;;5047135;28;20034;-60
2022/03/21 10:19:52;;;;;;;54.13;13.18;;;10.30;66.70;;;;;;5063214;27;20031;-60
2022/03/21 10:22:23;;;;;;;55.88;13.55;;;10.30;66.20;;;;;;5095375;27;20119;-61
2022/03/21 10:24:50;;;;;;;41.40;12.32;;;10.40;66.00;;;;;;5057113;28;21745;-61
2022/03/21 10:27:34;;;;;;;52.60;12.00;;;10.50;65.80;;;;;;5080175;28;20038;-61
2022/03/21 10:30:15;;;;;;;45.03;13.10;;;10.50;65.90;;;;;;5102793;27;20035;-60
2022/03/21 10:32:46;;;;;;;42.67;12.13;;;10.60;66.30;;;;;;5094792;27;20046;-61
2022/03/21 10:35:41;;;;;;;55.15;13.10;;;10.70;66.30;;;;;;5101810;27;20510;-61
2022/03/21 10:38:06;;;;;;;36.17;13.82;;;10.60;65.60;;;;;;5115720;27;20063;-61
2022/03/21 10:40:40;;;;;;;61.38;14.10;;;10.70;64.80;;;;;;5099354;27;20509;-61
2022/03/21 10:43:09;;;;;;;48.88;13.13;;;10.70;65.20;;;;;;5112405;27;20027;-61
2022/03/21 10:45:35;;;;;;;45.88;13.00;;;10.80;64.40;;;;;;5095663;27;20462;-60
2022/03/21 10:48:01;;;;;;;67.75;13.50;;;10.80;64.20;;;;;;5113595;27;21190;-60
2022/03/21 10:50:34;;;;;;;67.32;14.55;;;10.90;64.50;;;;;;5080834;27;20046;-60
2022/03/21 10:53:16;;;;;;;63.63;13.80;;;10.90;64.60;;;;;;5098488;27;20516;-62
2022/03/21 10:56:04;;;;;;;53.75;13.38;;;11.00;64.80;;;;;;5112919;27;20127;-61
2022/03/21 10:58:38;;;;;;;56.15;13.50;;;11.10;64.70;;;;;;5098121;27;20039;-62
2022/03/21 11:01:17;;;;;;;55.47;14.20;;;11.10;65.00;;;;;;5097894;27;20034;-60
2022/03/21 11:03:49;;;;;;;78.95;16.02;;;11.10;64.30;;;;;;5095828;27;20027;-61
2022/03/21 11:06:14;;;;;;;80.50;16.17;;;11.20;64.60;;;;;;5097445;27;20054;-60
2022/03/21 11:08:40;;;;;;;80.60;15.93;;;11.30;64.80;;;;;;5112121;27;20123;-61
2022/03/21 11:11:07;;;;;;;101.82;17.25;;;11.30;64.70;;;;;;5075477;27;20051;-60
2022/03/21 11:13:33;;;;;;;90.35;16.50;;;11.30;64.70;;;;;;5095692;27;20024;-61
2022/03/21 11:15:58;;;;;;;109.90;20.35;;;11.40;64.50;;;;;;5096182;27;20074;-61
2022/03/21 11:18:26;;;;;;;117.93;19.40;;;11.40;64.60;;;;;;5094598;27;20045;-61
2022/03/21 11:20:52;;;;;;;94.43;19.00;;;11.50;64.60;;;;;;5099478;27;20015;-62
2022/03/21 11:23:18;;;;;;;108.65;17.38;;;11.50;64.50;;;;;;5095671;27;20038;-61
2022/03/21 11:25:56;;;;;;;70.15;16.88;;;11.60;64.00;;;;;;5105687;27;20023;-61
2022/03/21 11:28:37;;;;;;;61.55;17.33;;;11.60;63.60;;;;;;5072186;27;20035;-61
2022/03/21 11:31:17;;;;;;;72.97;17.02;;;11.70;63.40;;;;;;5084092;27;20058;-59
2022/03/21 11:33:54;;;;;;;84.32;18.25;;;11.80;63.20;;;;;;5095311;27;20069;-61
2022/03/21 11:36:20;;;;;;;76.38;16.88;;;11.80;63.30;;;;;;5108887;27;20032;-61
2022/03/21 11:38:46;;;;;;;64.10;16.55;;;11.80;62.80;;;;;;5096883;27;20050;-62
2022/03/21 11:41:21;;;;;;;59.97;16.83;;;11.90;62.70;;;;;;5098901;27;20031;-62
2022/03/21 11:43:47;;;;;;;47.83;16.08;;;12.00;62.70;;;;;;5095752;27;20030;-62
2022/03/21 11:46:25;;;;;;;107.65;18.58;;;12.10;62.80;;;;;;5067090;27;20669;-62
2022/03/21 11:48:51;;;;;;;103.68;20.23;;;12.10;62.90;;;;;;5096736;27;20130;-62
2022/03/21 11:51:17;;;;;;;84.47;19.02;;;12.20;62.70;;;;;;5080075;27;20122;-61
2022/03/21 11:53:47;;;;;;;74.03;16.85;;;12.20;62.90;;;;;;5117578;27;20623;-61
2022/03/21 11:56:16;;;;;;;57.20;15.98;;;12.30;62.70;;;;;;5095298;27;20513;-61
2022/03/21 11:58:45;;;;;;;72.90;17.75;;;12.30;62.40;;;;;;5112300;27;20066;-61
2022/03/21 12:01:27;;;;;;;88.82;18.83;;;12.40;62.70;;;;;;5081935;27;20314;-61
2022/03/21 12:03:53;;;;;;;70.45;17.10;;;12.40;63.40;;;;;;5097784;27;20055;-61
2022/03/21 12:06:23;;;;;;;71.70;16.40;;;12.40;63.30;;;;;;5096336;28;20070;-62
2022/03/21 12:08:52;;;;;;;68.45;16.73;;;12.20;62.20;;;;;;5097994;28;20019;-61
2022/03/21 12:11:37;;;;;;;76.13;16.73;;;12.50;62.70;;;;;;5099379;28;20101;-61
2022/03/21 12:14:21;;;;;;;51.30;17.35;;;12.60;62.80;;;;;;5112392;28;20730;-61
2022/03/21 12:16:47;;;;;;;39.50;15.18;;;12.60;61.70;;;;;;5118256;27;20038;-61
2022/03/21 12:19:13;;;;;;;52.67;15.07;;;12.70;61.20;;;;;;5082932;28;20035;-61
2022/03/21 12:21:39;;;;;;;85.45;17.55;;;12.80;61.20;;;;;;5082220;28;20075;-62
2022/03/21 12:24:15;;;;;;;55.78;16.73;;;12.80;61.20;;;;;;5093998;28;20428;-61
2022/03/21 12:26:50;;;;;;;61.33;16.15;;;12.90;61.70;;;;;;5100872;28;20075;-61
2022/03/21 12:29:32;;;;;;;42.97;16.30;;;13.00;61.00;;;;;;5095697;28;20019;-61
2022/03/21 12:32:46;;;;;;;39.30;15.05;;;13.00;60.80;;;;;;5094680;28;20070;-62
2022/03/21 12:35:35;;;;;;;39.10;14.80;;;13.10;60.10;;;;;;5034868;28;20625;-62
2022/03/21 12:38:17;;;;;;;51.22;15.20;;;13.20;59.90;;;;;;5012871;28;20157;-62
2022/03/21 12:40:55;;;;;;;37.45;14.65;;;13.20;60.00;;;;;;5069682;28;20517;-62
2022/03/21 12:43:21;;;;;;;35.03;15.05;;;13.30;60.00;;;;;;5112202;27;20047;-62
2022/03/21 12:45:49;;;;;;;38.92;14.57;;;13.40;59.50;;;;;;5090466;27;20209;-61
2022/03/21 12:48:17;;;;;;;39.35;14.27;;;13.40;59.50;;;;;;5102898;27;20369;-62
2022/03/21 12:50:43;;;;;;;38.63;13.90;;;13.50;59.50;;;;;;5085476;27;20031;-61
2022/03/21 12:53:10;;;;;;;27.02;13.15;;;13.50;59.60;;;;;;5098640;27;20025;-62
2022/03/21 12:55:36;;;;;;;38.13;13.40;;;13.60;58.50;;;;;;5101394;27;20027;-62
2022/03/21 12:58:03;;;;;;;24.63;12.38;;;13.60;58.60;;;;;;5083748;27;20096;-61
2022/03/21 13:00:38;;;;;;;36.28;14.55;;;13.60;58.00;;;;;;5117154;27;20019;-62
2022/03/21 13:03:04;;;;;;;33.27;13.03;;;13.70;58.80;;;;;;5083361;27;20015;-61